sensor_id;sensor_type;location;lat;lon;timestamp;temperature;humidity
43999;DHT22;51319;52.162;5.302;2023-05-16T00:00:00;9.80;90.00
43999;DHT22;51319;52.162;5.302;2023-05-16T00:02:27;9.80;90.10
43999;DHT22;51319;52.162;5.302;2023-05-16T00:04:54;9.70;90.10
43999;DHT22;51319;52.162;5.302;2023-05-16T00:07:21;9.70;90.10
43999;DHT22;51319;52.162;5.302;2023-05-16T00:09:48;9.60;90.10
43999;DHT22;51319;52.162;5.302;2023-05-16T00:12:15;9.60;90.10
43999;DHT22;51319;52.162;5.302;2023-05-16T00:14:43;9.50;90.10
43999;DHT22;51319;52.162;5.302;2023-05-16T00:17:10;9.50;90.20
43999;DHT22;51319;52.162;5.302;2023-05-16T00:19:38;9.50;90.30
43999;DHT22;51319;52.162;5.302;2023-05-16T00:22:05;9.40;90.30
43999;DHT22;51319;52.162;5.302;2023-05-16T00:24:33;9.40;90.30
43999;DHT22;51319;52.162;5.302;2023-05-16T00:27:00;9.40;90.30
43999;DHT22;51319;52.162;5.302;2023-05-16T00:29:27;9.30;90.20
43999;DHT22;51319;52.162;5.302;2023-05-16T00:31:54;9.30;90.20
43999;DHT22;51319;52.162;5.302;2023-05-16T00:34:22;9.30;90.20
43999;DHT22;51319;52.162;5.302;2023-05-16T00:36:49;9.20;90.20
43999;DHT22;51319;52.162;5.302;2023-05-16T00:39:16;9.20;90.20
43999;DHT22;51319;52.162;5.302;2023-05-16T00:41:43;9.20;90.30
43999;DHT22;51319;52.162;5.302;2023-05-16T00:44:11;9.10;90.30
43999;DHT22;51319;52.162;5.302;2023-05-16T00:46:38;9.10;90.40
43999;DHT22;51319;52.162;5.302;2023-05-16T00:49:06;9.10;90.40
43999;DHT22;51319;52.162;5.302;2023-05-16T00:51:34;9.00;90.30
43999;DHT22;51319;52.162;5.302;2023-05-16T00:54:02;9.00;90.40
43999;DHT22;51319;52.162;5.302;2023-05-16T00:56:29;9.00;90.40
43999;DHT22;51319;52.162;5.302;2023-05-16T00:58:56;9.00;90.40
43999;DHT22;51319;52.162;5.302;2023-05-16T01:01:25;8.90;90.40
43999;DHT22;51319;52.162;5.302;2023-05-16T01:03:53;9.00;90.40
43999;DHT22;51319;52.162;5.302;2023-05-16T01:06:21;8.90;90.40
43999;DHT22;51319;52.162;5.302;2023-05-16T01:08:48;8.90;90.60
43999;DHT22;51319;52.162;5.302;2023-05-16T01:11:40;8.80;90.60
43999;DHT22;51319;52.162;5.302;2023-05-16T01:19:59;8.70;90.90
43999;DHT22;51319;52.162;5.302;2023-05-16T01:28:03;8.60;91.20
43999;DHT22;51319;52.162;5.302;2023-05-16T01:30:35;8.60;91.20
43999;DHT22;51319;52.162;5.302;2023-05-16T01:33:02;8.60;91.10
43999;DHT22;51319;52.162;5.302;2023-05-16T01:35:30;8.50;91.20
43999;DHT22;51319;52.162;5.302;2023-05-16T01:38:09;8.50;91.30
43999;DHT22;51319;52.162;5.302;2023-05-16T01:43:57;8.40;91.50
43999;DHT22;51319;52.162;5.302;2023-05-16T01:46:27;8.30;91.50
43999;DHT22;51319;52.162;5.302;2023-05-16T01:49:16;8.30;91.70
43999;DHT22;51319;52.162;5.302;2023-05-16T01:51:51;8.30;91.90
43999;DHT22;51319;52.162;5.302;2023-05-16T01:54:20;8.20;92.00
43999;DHT22;51319;52.162;5.302;2023-05-16T01:56:54;8.20;92.10
43999;DHT22;51319;52.162;5.302;2023-05-16T01:59:23;8.20;92.20
43999;DHT22;51319;52.162;5.302;2023-05-16T02:01:53;8.10;92.30
43999;DHT22;51319;52.162;5.302;2023-05-16T02:04:21;8.20;92.50
43999;DHT22;51319;52.162;5.302;2023-05-16T02:06:48;8.10;92.60
43999;DHT22;51319;52.162;5.302;2023-05-16T02:09:15;8.10;92.70
43999;DHT22;51319;52.162;5.302;2023-05-16T02:11:42;8.00;92.80
43999;DHT22;51319;52.162;5.302;2023-05-16T02:14:09;8.00;93.00
43999;DHT22;51319;52.162;5.302;2023-05-16T02:16:37;8.00;93.10
43999;DHT22;51319;52.162;5.302;2023-05-16T02:19:04;8.00;93.20
43999;DHT22;51319;52.162;5.302;2023-05-16T02:21:31;8.00;93.30
43999;DHT22;51319;52.162;5.302;2023-05-16T02:23:58;8.00;93.40
43999;DHT22;51319;52.162;5.302;2023-05-16T02:26:25;8.00;93.50
43999;DHT22;51319;52.162;5.302;2023-05-16T02:28:53;8.00;93.60
43999;DHT22;51319;52.162;5.302;2023-05-16T02:31:38;8.00;93.70
43999;DHT22;51319;52.162;5.302;2023-05-16T02:34:05;8.00;93.80
43999;DHT22;51319;52.162;5.302;2023-05-16T02:36:33;7.90;93.90
43999;DHT22;51319;52.162;5.302;2023-05-16T02:39:01;7.90;94.00
43999;DHT22;51319;52.162;5.302;2023-05-16T02:41:30;7.80;94.10
43999;DHT22;51319;52.162;5.302;2023-05-16T02:43:57;7.80;94.20
43999;DHT22;51319;52.162;5.302;2023-05-16T02:46:28;7.80;94.30
43999;DHT22;51319;52.162;5.302;2023-05-16T02:48:59;7.80;94.40
43999;DHT22;51319;52.162;5.302;2023-05-16T02:51:27;7.70;94.50
43999;DHT22;51319;52.162;5.302;2023-05-16T02:53:54;7.70;94.60
43999;DHT22;51319;52.162;5.302;2023-05-16T02:56:25;7.70;94.70
43999;DHT22;51319;52.162;5.302;2023-05-16T02:58:55;7.70;94.80
43999;DHT22;51319;52.162;5.302;2023-05-16T03:01:24;7.60;95.00
43999;DHT22;51319;52.162;5.302;2023-05-16T03:03:51;7.60;95.10
43999;DHT22;51319;52.162;5.302;2023-05-16T03:06:21;7.60;95.20
43999;DHT22;51319;52.162;5.302;2023-05-16T03:08:48;7.50;95.30
43999;DHT22;51319;52.162;5.302;2023-05-16T03:11:16;7.50;95.40
43999;DHT22;51319;52.162;5.302;2023-05-16T03:13:46;7.50;95.60
43999;DHT22;51319;52.162;5.302;2023-05-16T03:16:13;7.50;95.70
43999;DHT22;51319;52.162;5.302;2023-05-16T03:18:41;7.50;95.80
43999;DHT22;51319;52.162;5.302;2023-05-16T03:21:08;7.40;95.90
43999;DHT22;51319;52.162;5.302;2023-05-16T03:23:35;7.40;96.00
43999;DHT22;51319;52.162;5.302;2023-05-16T03:26:02;7.40;96.10
43999;DHT22;51319;52.162;5.302;2023-05-16T03:28:29;7.30;96.20
43999;DHT22;51319;52.162;5.302;2023-05-16T03:30:56;7.30;96.40
43999;DHT22;51319;52.162;5.302;2023-05-16T03:33:23;7.30;96.50
43999;DHT22;51319;52.162;5.302;2023-05-16T03:35:50;7.20;96.60
43999;DHT22;51319;52.162;5.302;2023-05-16T03:38:17;7.20;96.70
43999;DHT22;51319;52.162;5.302;2023-05-16T03:40:45;7.20;96.80
43999;DHT22;51319;52.162;5.302;2023-05-16T03:43:12;7.10;97.00
43999;DHT22;51319;52.162;5.302;2023-05-16T03:45:38;7.10;97.10
43999;DHT22;51319;52.162;5.302;2023-05-16T03:48:07;7.10;97.20
43999;DHT22;51319;52.162;5.302;2023-05-16T03:50:35;7.10;97.30
43999;DHT22;51319;52.162;5.302;2023-05-16T03:53:06;7.10;97.40
43999;DHT22;51319;52.162;5.302;2023-05-16T03:55:34;7.00;97.50
43999;DHT22;51319;52.162;5.302;2023-05-16T03:58:01;7.00;97.60
43999;DHT22;51319;52.162;5.302;2023-05-16T04:00:28;6.90;97.80
43999;DHT22;51319;52.162;5.302;2023-05-16T04:02:56;6.90;97.90
43999;DHT22;51319;52.162;5.302;2023-05-16T04:05:23;6.90;98.00
43999;DHT22;51319;52.162;5.302;2023-05-16T04:07:50;6.90;98.20
43999;DHT22;51319;52.162;5.302;2023-05-16T04:10:17;6.90;98.20
43999;DHT22;51319;52.162;5.302;2023-05-16T04:12:44;6.90;98.30
43999;DHT22;51319;52.162;5.302;2023-05-16T04:15:12;6.90;98.30
43999;DHT22;51319;52.162;5.302;2023-05-16T04:17:38;6.90;98.40
43999;DHT22;51319;52.162;5.302;2023-05-16T04:20:06;7.00;98.60
43999;DHT22;51319;52.162;5.302;2023-05-16T04:22:33;7.00;98.60
43999;DHT22;51319;52.162;5.302;2023-05-16T04:25:00;7.00;98.60
43999;DHT22;51319;52.162;5.302;2023-05-16T04:27:27;7.00;98.60
43999;DHT22;51319;52.162;5.302;2023-05-16T04:29:54;7.00;98.70
43999;DHT22;51319;52.162;5.302;2023-05-16T04:32:21;7.00;98.70
43999;DHT22;51319;52.162;5.302;2023-05-16T04:34:50;7.00;98.70
43999;DHT22;51319;52.162;5.302;2023-05-16T04:37:19;7.10;98.80
43999;DHT22;51319;52.162;5.302;2023-05-16T04:39:46;7.10;98.80
43999;DHT22;51319;52.162;5.302;2023-05-16T04:42:13;7.20;98.90
43999;DHT22;51319;52.162;5.302;2023-05-16T04:44:40;7.20;98.90
43999;DHT22;51319;52.162;5.302;2023-05-16T04:47:07;7.20;98.80
43999;DHT22;51319;52.162;5.302;2023-05-16T04:49:34;7.30;98.90
43999;DHT22;51319;52.162;5.302;2023-05-16T04:52:01;7.40;98.90
43999;DHT22;51319;52.162;5.302;2023-05-16T04:54:28;7.40;98.90
43999;DHT22;51319;52.162;5.302;2023-05-16T04:56:55;7.50;99.00
43999;DHT22;51319;52.162;5.302;2023-05-16T04:59:22;7.60;98.90
43999;DHT22;51319;52.162;5.302;2023-05-16T05:01:50;7.70;98.80
43999;DHT22;51319;52.162;5.302;2023-05-16T05:04:17;7.70;98.70
43999;DHT22;51319;52.162;5.302;2023-05-16T05:06:44;7.80;98.60
43999;DHT22;51319;52.162;5.302;2023-05-16T05:09:11;7.90;98.60
43999;DHT22;51319;52.162;5.302;2023-05-16T05:11:38;8.00;98.50
43999;DHT22;51319;52.162;5.302;2023-05-16T05:14:05;8.10;98.30
43999;DHT22;51319;52.162;5.302;2023-05-16T05:16:32;8.10;98.20
43999;DHT22;51319;52.162;5.302;2023-05-16T05:18:58;8.20;98.10
43999;DHT22;51319;52.162;5.302;2023-05-16T05:21:26;8.30;98.10
43999;DHT22;51319;52.162;5.302;2023-05-16T05:23:53;8.40;98.00
43999;DHT22;51319;52.162;5.302;2023-05-16T05:26:20;8.40;97.80
43999;DHT22;51319;52.162;5.302;2023-05-16T05:28:48;8.50;97.80
43999;DHT22;51319;52.162;5.302;2023-05-16T05:31:30;8.60;97.80
43999;DHT22;51319;52.162;5.302;2023-05-16T05:33:59;8.90;97.90
43999;DHT22;51319;52.162;5.302;2023-05-16T05:36:26;9.20;97.50
43999;DHT22;51319;52.162;5.302;2023-05-16T05:38:54;9.40;97.10
43999;DHT22;51319;52.162;5.302;2023-05-16T05:41:20;9.80;96.70
43999;DHT22;51319;52.162;5.302;2023-05-16T05:43:47;10.10;95.90
43999;DHT22;51319;52.162;5.302;2023-05-16T05:46:15;10.40;95.30
43999;DHT22;51319;52.162;5.302;2023-05-16T05:48:43;10.80;94.60
43999;DHT22;51319;52.162;5.302;2023-05-16T05:51:10;11.10;93.60
43999;DHT22;51319;52.162;5.302;2023-05-16T05:53:37;11.40;92.80
43999;DHT22;51319;52.162;5.302;2023-05-16T05:56:04;11.80;92.00
43999;DHT22;51319;52.162;5.302;2023-05-16T05:58:31;12.10;90.80
43999;DHT22;51319;52.162;5.302;2023-05-16T06:00:58;12.50;89.30
43999;DHT22;51319;52.162;5.302;2023-05-16T06:03:25;12.70;87.40
43999;DHT22;51319;52.162;5.302;2023-05-16T06:05:52;12.90;85.20
43999;DHT22;51319;52.162;5.302;2023-05-16T06:08:19;13.30;83.40
43999;DHT22;51319;52.162;5.302;2023-05-16T06:10:46;13.60;81.20
43999;DHT22;51319;52.162;5.302;2023-05-16T06:13:13;13.80;79.90
43999;DHT22;51319;52.162;5.302;2023-05-16T06:15:40;14.10;78.00
43999;DHT22;51319;52.162;5.302;2023-05-16T06:18:07;14.40;76.30
43999;DHT22;51319;52.162;5.302;2023-05-16T06:20:34;14.90;74.60
43999;DHT22;51319;52.162;5.302;2023-05-16T06:23:01;15.20;73.20
43999;DHT22;51319;52.162;5.302;2023-05-16T06:26:04;15.80;71.60
43999;DHT22;51319;52.162;5.302;2023-05-16T06:28:31;16.10;68.90
43999;DHT22;51319;52.162;5.302;2023-05-16T06:30:58;16.50;66.90
43999;DHT22;51319;52.162;5.302;2023-05-16T06:33:25;15.80;67.00
43999;DHT22;51319;52.162;5.302;2023-05-16T06:35:52;15.70;66.80
43999;DHT22;51319;52.162;5.302;2023-05-16T06:38:18;16.00;66.90
43999;DHT22;51319;52.162;5.302;2023-05-16T06:40:45;16.40;65.00
43999;DHT22;51319;52.162;5.302;2023-05-16T06:43:12;16.40;64.40
43999;DHT22;51319;52.162;5.302;2023-05-16T06:45:39;16.50;64.10
43999;DHT22;51319;52.162;5.302;2023-05-16T06:48:07;16.70;63.20
43999;DHT22;51319;52.162;5.302;2023-05-16T06:50:34;17.20;61.60
43999;DHT22;51319;52.162;5.302;2023-05-16T06:53:01;17.80;60.40
43999;DHT22;51319;52.162;5.302;2023-05-16T06:55:30;18.40;58.90
43999;DHT22;51319;52.162;5.302;2023-05-16T06:57:57;18.40;57.90
43999;DHT22;51319;52.162;5.302;2023-05-16T07:00:24;19.00;56.30
43999;DHT22;51319;52.162;5.302;2023-05-16T07:02:51;19.10;55.30
43999;DHT22;51319;52.162;5.302;2023-05-16T07:05:18;18.40;55.30
43999;DHT22;51319;52.162;5.302;2023-05-16T07:07:46;18.10;55.80
43999;DHT22;51319;52.162;5.302;2023-05-16T07:10:15;17.20;57.00
43999;DHT22;51319;52.162;5.302;2023-05-16T07:12:42;16.60;58.80
43999;DHT22;51319;52.162;5.302;2023-05-16T07:15:09;17.20;58.30
43999;DHT22;51319;52.162;5.302;2023-05-16T07:17:36;16.90;57.80
43999;DHT22;51319;52.162;5.302;2023-05-16T07:20:04;17.00;58.90
43999;DHT22;51319;52.162;5.302;2023-05-16T07:22:32;18.30;57.10
43999;DHT22;51319;52.162;5.302;2023-05-16T07:24:59;19.20;54.70
43999;DHT22;51319;52.162;5.302;2023-05-16T07:27:27;19.80;54.10
43999;DHT22;51319;52.162;5.302;2023-05-16T07:29:54;19.30;53.60
43999;DHT22;51319;52.162;5.302;2023-05-16T07:32:21;19.10;53.80
43999;DHT22;51319;52.162;5.302;2023-05-16T07:34:48;19.70;53.20
43999;DHT22;51319;52.162;5.302;2023-05-16T07:37:15;20.00;52.50
43999;DHT22;51319;52.162;5.302;2023-05-16T07:39:42;19.50;52.60
43999;DHT22;51319;52.162;5.302;2023-05-16T07:42:09;19.80;52.40
43999;DHT22;51319;52.162;5.302;2023-05-16T07:44:36;19.10;52.40
43999;DHT22;51319;52.162;5.302;2023-05-16T07:47:03;19.10;52.90
43999;DHT22;51319;52.162;5.302;2023-05-16T07:49:30;20.00;52.30
43999;DHT22;51319;52.162;5.302;2023-05-16T07:51:57;19.60;51.90
43999;DHT22;51319;52.162;5.302;2023-05-16T07:54:24;18.70;52.40
43999;DHT22;51319;52.162;5.302;2023-05-16T07:56:51;17.70;53.80
43999;DHT22;51319;52.162;5.302;2023-05-16T07:59:18;16.90;55.20
43999;DHT22;51319;52.162;5.302;2023-05-16T08:01:45;16.40;56.90
43999;DHT22;51319;52.162;5.302;2023-05-16T08:04:12;17.50;56.80
43999;DHT22;51319;52.162;5.302;2023-05-16T08:06:39;19.10;54.60
43999;DHT22;51319;52.162;5.302;2023-05-16T08:09:07;20.60;52.40
43999;DHT22;51319;52.162;5.302;2023-05-16T08:11:35;21.60;50.40
43999;DHT22;51319;52.162;5.302;2023-05-16T08:14:02;22.20;48.60
43999;DHT22;51319;52.162;5.302;2023-05-16T08:16:29;22.30;46.20
43999;DHT22;51319;52.162;5.302;2023-05-16T08:18:57;22.60;46.00
43999;DHT22;51319;52.162;5.302;2023-05-16T08:21:24;23.70;44.50
43999;DHT22;51319;52.162;5.302;2023-05-16T08:23:51;22.80;44.10
43999;DHT22;51319;52.162;5.302;2023-05-16T08:26:18;23.00;44.30
43999;DHT22;51319;52.162;5.302;2023-05-16T08:28:44;23.90;43.80
43999;DHT22;51319;52.162;5.302;2023-05-16T08:31:11;24.50;42.50
43999;DHT22;51319;52.162;5.302;2023-05-16T08:33:38;24.30;42.10
43999;DHT22;51319;52.162;5.302;2023-05-16T08:36:05;24.00;43.30
43999;DHT22;51319;52.162;5.302;2023-05-16T08:38:32;23.10;43.10
43999;DHT22;51319;52.162;5.302;2023-05-16T08:40:59;22.30;43.80
43999;DHT22;51319;52.162;5.302;2023-05-16T08:43:27;21.70;43.70
43999;DHT22;51319;52.162;5.302;2023-05-16T08:45:54;20.80;45.10
43999;DHT22;51319;52.162;5.302;2023-05-16T08:48:22;21.50;45.30
43999;DHT22;51319;52.162;5.302;2023-05-16T08:50:50;20.90;44.80
43999;DHT22;51319;52.162;5.302;2023-05-16T08:53:21;20.00;46.20
43999;DHT22;51319;52.162;5.302;2023-05-16T08:55:48;19.20;47.70
43999;DHT22;51319;52.162;5.302;2023-05-16T08:58:17;19.10;48.80
43999;DHT22;51319;52.162;5.302;2023-05-16T09:00:46;19.30;48.80
43999;DHT22;51319;52.162;5.302;2023-05-16T09:03:13;21.10;47.40
43999;DHT22;51319;52.162;5.302;2023-05-16T09:05:40;23.20;44.60
43999;DHT22;51319;52.162;5.302;2023-05-16T09:08:08;23.00;43.00
43999;DHT22;51319;52.162;5.302;2023-05-16T09:10:34;22.40;44.00
43999;DHT22;51319;52.162;5.302;2023-05-16T09:13:02;23.70;44.00
43999;DHT22;51319;52.162;5.302;2023-05-16T09:15:31;24.10;42.00
43999;DHT22;51319;52.162;5.302;2023-05-16T09:18:01;25.30;39.90
43999;DHT22;51319;52.162;5.302;2023-05-16T09:20:29;24.10;39.60
43999;DHT22;51319;52.162;5.302;2023-05-16T09:22:58;23.50;40.70
43999;DHT22;51319;52.162;5.302;2023-05-16T09:25:27;22.70;41.60
43999;DHT22;51319;52.162;5.302;2023-05-16T09:27:59;21.50;43.30
43999;DHT22;51319;52.162;5.302;2023-05-16T09:30:30;20.90;45.10
43999;DHT22;51319;52.162;5.302;2023-05-16T09:32:57;22.50;44.20
43999;DHT22;51319;52.162;5.302;2023-05-16T09:35:25;24.30;42.10
43999;DHT22;51319;52.162;5.302;2023-05-16T09:37:55;25.70;40.20
43999;DHT22;51319;52.162;5.302;2023-05-16T09:40:23;25.80;39.50
43999;DHT22;51319;52.162;5.302;2023-05-16T09:43:08;25.90;38.70
43999;DHT22;51319;52.162;5.302;2023-05-16T09:45:35;24.40;39.90
43999;DHT22;51319;52.162;5.302;2023-05-16T09:48:09;23.00;40.30
43999;DHT22;51319;52.162;5.302;2023-05-16T09:50:38;21.80;41.40
43999;DHT22;51319;52.162;5.302;2023-05-16T09:53:07;21.70;43.20
43999;DHT22;51319;52.162;5.302;2023-05-16T09:55:34;23.60;41.70
43999;DHT22;51319;52.162;5.302;2023-05-16T09:58:01;24.10;39.30
43999;DHT22;51319;52.162;5.302;2023-05-16T10:00:32;23.10;38.30
43999;DHT22;51319;52.162;5.302;2023-05-16T10:03:00;21.90;40.40
43999;DHT22;51319;52.162;5.302;2023-05-16T10:05:31;21.00;42.90
43999;DHT22;51319;52.162;5.302;2023-05-16T10:08:01;21.10;44.40
43999;DHT22;51319;52.162;5.302;2023-05-16T10:10:29;21.60;43.80
43999;DHT22;51319;52.162;5.302;2023-05-16T10:12:58;21.90;43.50
43999;DHT22;51319;52.162;5.302;2023-05-16T10:15:41;23.70;42.10
43999;DHT22;51319;52.162;5.302;2023-05-16T10:18:09;25.00;39.70
43999;DHT22;51319;52.162;5.302;2023-05-16T10:20:41;24.60;38.60
43999;DHT22;51319;52.162;5.302;2023-05-16T10:23:14;23.90;37.70
43999;DHT22;51319;52.162;5.302;2023-05-16T10:25:43;22.80;38.00
43999;DHT22;51319;52.162;5.302;2023-05-16T10:30:56;20.80;41.10
43999;DHT22;51319;52.162;5.302;2023-05-16T10:33:23;20.40;43.40
43999;DHT22;51319;52.162;5.302;2023-05-16T10:35:51;20.30;44.40
43999;DHT22;51319;52.162;5.302;2023-05-16T10:38:19;21.70;44.70
43999;DHT22;51319;52.162;5.302;2023-05-16T10:40:47;23.60;42.00
43999;DHT22;51319;52.162;5.302;2023-05-16T10:43:30;24.40;40.20
43999;DHT22;51319;52.162;5.302;2023-05-16T10:48:31;23.70;39.80
43999;DHT22;51319;52.162;5.302;2023-05-16T10:50:58;23.90;40.90
43999;DHT22;51319;52.162;5.302;2023-05-16T10:53:34;23.30;39.90
43999;DHT22;51319;52.162;5.302;2023-05-16T11:06:26;24.30;36.70
43999;DHT22;51319;52.162;5.302;2023-05-16T11:17:14;21.70;39.50
43999;DHT22;51319;52.162;5.302;2023-05-16T11:25:00;21.00;41.70
43999;DHT22;51319;52.162;5.302;2023-05-16T11:27:32;20.90;42.10
43999;DHT22;51319;52.162;5.302;2023-05-16T11:32:33;20.10;42.80
43999;DHT22;51319;52.162;5.302;2023-05-16T11:35:01;19.70;44.10
43999;DHT22;51319;52.162;5.302;2023-05-16T11:37:29;19.40;44.80
43999;DHT22;51319;52.162;5.302;2023-05-16T11:40:00;19.20;44.90
43999;DHT22;51319;52.162;5.302;2023-05-16T11:42:35;19.10;45.40
43999;DHT22;51319;52.162;5.302;2023-05-16T11:45:13;18.90;45.90
43999;DHT22;51319;52.162;5.302;2023-05-16T11:47:42;18.80;46.20
43999;DHT22;51319;52.162;5.302;2023-05-16T11:50:15;18.60;46.30
43999;DHT22;51319;52.162;5.302;2023-05-16T11:52:44;18.40;46.80
43999;DHT22;51319;52.162;5.302;2023-05-16T11:55:12;18.40;46.90
43999;DHT22;51319;52.162;5.302;2023-05-16T11:57:55;18.40;47.70
43999;DHT22;51319;52.162;5.302;2023-05-16T12:00:25;18.70;47.80
43999;DHT22;51319;52.162;5.302;2023-05-16T12:02:59;18.90;47.20
43999;DHT22;51319;52.162;5.302;2023-05-16T12:05:27;19.00;47.10
43999;DHT22;51319;52.162;5.302;2023-05-16T12:07:57;19.30;47.00
43999;DHT22;51319;52.162;5.302;2023-05-16T12:10:25;20.20;46.70
43999;DHT22;51319;52.162;5.302;2023-05-16T12:12:54;20.50;45.50
43999;DHT22;51319;52.162;5.302;2023-05-16T12:15:23;20.00;44.70
43999;DHT22;51319;52.162;5.302;2023-05-16T12:17:51;19.60;45.70
43999;DHT22;51319;52.162;5.302;2023-05-16T12:20:18;19.20;46.30
43999;DHT22;51319;52.162;5.302;2023-05-16T12:22:45;19.20;46.80
43999;DHT22;51319;52.162;5.302;2023-05-16T12:25:29;20.00;46.50
43999;DHT22;51319;52.162;5.302;2023-05-16T12:28:03;20.90;44.70
43999;DHT22;51319;52.162;5.302;2023-05-16T12:30:31;20.80;44.30
43999;DHT22;51319;52.162;5.302;2023-05-16T12:33:11;21.20;43.80
43999;DHT22;51319;52.162;5.302;2023-05-16T12:35:43;22.00;42.20
43999;DHT22;51319;52.162;5.302;2023-05-16T12:38:12;21.80;41.70
43999;DHT22;51319;52.162;5.302;2023-05-16T12:40:41;21.90;42.00
43999;DHT22;51319;52.162;5.302;2023-05-16T12:43:26;21.90;42.00
43999;DHT22;51319;52.162;5.302;2023-05-16T12:45:55;21.70;41.50
43999;DHT22;51319;52.162;5.302;2023-05-16T12:48:28;21.30;42.20
43999;DHT22;51319;52.162;5.302;2023-05-16T12:51:11;20.90;43.80
43999;DHT22;51319;52.162;5.302;2023-05-16T12:53:46;20.20;43.40
43999;DHT22;51319;52.162;5.302;2023-05-16T12:56:31;19.70;44.80
43999;DHT22;51319;52.162;5.302;2023-05-16T12:58:58;19.30;46.20
43999;DHT22;51319;52.162;5.302;2023-05-16T13:01:25;18.90;46.40
43999;DHT22;51319;52.162;5.302;2023-05-16T13:03:52;18.50;46.90
43999;DHT22;51319;52.162;5.302;2023-05-16T13:06:19;18.40;47.40
43999;DHT22;51319;52.162;5.302;2023-05-16T13:08:47;18.60;48.60
43999;DHT22;51319;52.162;5.302;2023-05-16T13:21:55;19.70;48.20
43999;DHT22;51319;52.162;5.302;2023-05-16T13:24:22;19.30;45.70
43999;DHT22;51319;52.162;5.302;2023-05-16T13:26:49;18.80;46.20
43999;DHT22;51319;52.162;5.302;2023-05-16T13:31:54;18.20;48.20
43999;DHT22;51319;52.162;5.302;2023-05-16T13:34:22;18.10;48.50
43999;DHT22;51319;52.162;5.302;2023-05-16T13:36:49;18.10;47.90
43999;DHT22;51319;52.162;5.302;2023-05-16T13:39:20;18.20;48.30
43999;DHT22;51319;52.162;5.302;2023-05-16T13:41:48;18.40;48.30
43999;DHT22;51319;52.162;5.302;2023-05-16T13:44:15;18.60;47.80
43999;DHT22;51319;52.162;5.302;2023-05-16T13:49:18;18.80;46.60
43999;DHT22;51319;52.162;5.302;2023-05-16T13:56:51;18.20;45.90
43999;DHT22;51319;52.162;5.302;2023-05-16T13:59:18;18.00;45.70
43999;DHT22;51319;52.162;5.302;2023-05-16T14:02:05;17.90;45.40
43999;DHT22;51319;52.162;5.302;2023-05-16T14:07:06;17.80;46.80
43999;DHT22;51319;52.162;5.302;2023-05-16T14:09:33;17.80;46.50
43999;DHT22;51319;52.162;5.302;2023-05-16T14:12:00;17.60;47.00
43999;DHT22;51319;52.162;5.302;2023-05-16T14:14:34;17.60;47.30
43999;DHT22;51319;52.162;5.302;2023-05-16T14:17:01;17.50;47.70
43999;DHT22;51319;52.162;5.302;2023-05-16T14:19:32;17.50;47.80
43999;DHT22;51319;52.162;5.302;2023-05-16T14:22:00;17.50;47.90
43999;DHT22;51319;52.162;5.302;2023-05-16T14:24:27;17.60;48.50
43999;DHT22;51319;52.162;5.302;2023-05-16T14:27:14;17.60;48.20
43999;DHT22;51319;52.162;5.302;2023-05-16T14:29:44;17.80;48.50
43999;DHT22;51319;52.162;5.302;2023-05-16T14:32:14;18.00;48.40
43999;DHT22;51319;52.162;5.302;2023-05-16T14:34:42;18.10;48.70
43999;DHT22;51319;52.162;5.302;2023-05-16T14:37:08;18.10;47.80
43999;DHT22;51319;52.162;5.302;2023-05-16T14:39:37;18.10;47.50
43999;DHT22;51319;52.162;5.302;2023-05-16T14:42:04;17.90;48.20
43999;DHT22;51319;52.162;5.302;2023-05-16T14:44:44;17.80;48.50
43999;DHT22;51319;52.162;5.302;2023-05-16T14:47:11;17.60;48.80
43999;DHT22;51319;52.162;5.302;2023-05-16T14:49:39;17.60;48.50
43999;DHT22;51319;52.162;5.302;2023-05-16T14:52:07;17.50;48.50
43999;DHT22;51319;52.162;5.302;2023-05-16T14:54:34;17.40;48.30
43999;DHT22;51319;52.162;5.302;2023-05-16T14:59:50;17.30;49.40
43999;DHT22;51319;52.162;5.302;2023-05-16T15:02:18;17.40;49.30
43999;DHT22;51319;52.162;5.302;2023-05-16T15:04:44;17.40;48.40
43999;DHT22;51319;52.162;5.302;2023-05-16T15:07:11;17.40;48.00
43999;DHT22;51319;52.162;5.302;2023-05-16T15:09:38;17.30;48.10
43999;DHT22;51319;52.162;5.302;2023-05-16T15:12:08;17.20;48.20
43999;DHT22;51319;52.162;5.302;2023-05-16T15:14:35;17.20;48.40
43999;DHT22;51319;52.162;5.302;2023-05-16T15:17:03;17.20;49.00
43999;DHT22;51319;52.162;5.302;2023-05-16T15:19:33;17.20;48.90
43999;DHT22;51319;52.162;5.302;2023-05-16T15:22:00;17.20;49.10
43999;DHT22;51319;52.162;5.302;2023-05-16T15:24:28;17.10;48.90
43999;DHT22;51319;52.162;5.302;2023-05-16T15:26:58;17.10;49.00
43999;DHT22;51319;52.162;5.302;2023-05-16T15:29:25;17.00;49.30
43999;DHT22;51319;52.162;5.302;2023-05-16T15:31:52;17.00;49.60
43999;DHT22;51319;52.162;5.302;2023-05-16T15:34:19;16.90;49.80
43999;DHT22;51319;52.162;5.302;2023-05-16T15:45:02;16.50;51.90
43999;DHT22;51319;52.162;5.302;2023-05-16T15:47:29;16.40;52.60
43999;DHT22;51319;52.162;5.302;2023-05-16T15:49:56;16.30;53.00
43999;DHT22;51319;52.162;5.302;2023-05-16T15:52:23;16.10;53.10
43999;DHT22;51319;52.162;5.302;2023-05-16T15:54:50;16.10;53.70
43999;DHT22;51319;52.162;5.302;2023-05-16T15:57:17;15.90;53.70
43999;DHT22;51319;52.162;5.302;2023-05-16T15:59:44;15.80;54.00
43999;DHT22;51319;52.162;5.302;2023-05-16T16:10:18;15.40;55.40
43999;DHT22;51319;52.162;5.302;2023-05-16T16:13:03;15.30;55.80
43999;DHT22;51319;52.162;5.302;2023-05-16T16:15:31;15.20;56.80
43999;DHT22;51319;52.162;5.302;2023-05-16T16:18:00;15.10;57.20
43999;DHT22;51319;52.162;5.302;2023-05-16T16:20:27;15.10;57.90
43999;DHT22;51319;52.162;5.302;2023-05-16T16:22:54;15.00;59.20
43999;DHT22;51319;52.162;5.302;2023-05-16T16:25:21;14.90;60.70
43999;DHT22;51319;52.162;5.302;2023-05-16T16:27:48;14.80;62.40
43999;DHT22;51319;52.162;5.302;2023-05-16T16:30:16;14.70;63.10
43999;DHT22;51319;52.162;5.302;2023-05-16T16:32:43;14.60;64.30
43999;DHT22;51319;52.162;5.302;2023-05-16T16:35:10;14.60;65.10
43999;DHT22;51319;52.162;5.302;2023-05-16T16:37:37;14.50;64.80
43999;DHT22;51319;52.162;5.302;2023-05-16T16:40:07;14.50;65.30
43999;DHT22;51319;52.162;5.302;2023-05-16T16:42:35;14.50;65.80
43999;DHT22;51319;52.162;5.302;2023-05-16T16:45:04;14.70;66.20
43999;DHT22;51319;52.162;5.302;2023-05-16T16:47:32;14.90;66.10
43999;DHT22;51319;52.162;5.302;2023-05-16T16:49:59;15.30;65.60
43999;DHT22;51319;52.162;5.302;2023-05-16T16:52:33;15.30;64.70
43999;DHT22;51319;52.162;5.302;2023-05-16T16:55:04;15.30;64.40
43999;DHT22;51319;52.162;5.302;2023-05-16T16:57:31;15.30;64.40
43999;DHT22;51319;52.162;5.302;2023-05-16T16:59:58;15.20;64.20
43999;DHT22;51319;52.162;5.302;2023-05-16T17:02:26;15.20;64.50
43999;DHT22;51319;52.162;5.302;2023-05-16T17:04:53;15.20;65.00
43999;DHT22;51319;52.162;5.302;2023-05-16T17:07:20;15.10;64.80
43999;DHT22;51319;52.162;5.302;2023-05-16T17:09:48;15.10;64.90
43999;DHT22;51319;52.162;5.302;2023-05-16T17:12:15;15.00;65.20